sensor_id;sensor_type;location;lat;lon;timestamp;P1;durP1;ratioP1;P2;durP2;ratioP2
2400;SDS011;1211;43.200;27.914;2022-08-03T00:01:02;1.10;;;0.80;;
2400;SDS011;1211;43.200;27.914;2022-08-03T00:03:29;2.03;;;1.83;;
2400;SDS011;1211;43.200;27.914;2022-08-03T00:05:58;3.00;;;1.90;;
2400;SDS011;1211;43.200;27.914;2022-08-03T00:08:25;1.73;;;1.00;;
2400;SDS011;1211;43.200;27.914;2022-08-03T00:10:52;1.67;;;1.57;;
2400;SDS011;1211;43.200;27.914;2022-08-03T00:13:18;1.20;;;1.10;;
2400;SDS011;1211;43.200;27.914;2022-08-03T00:15:45;2.13;;;1.17;;
2400;SDS011;1211;43.200;27.914;2022-08-03T00:18:12;1.10;;;0.70;;
2400;SDS011;1211;43.200;27.914;2022-08-03T00:20:39;2.30;;;1.63;;
2400;SDS011;1211;43.200;27.914;2022-08-03T00:23:08;1.10;;;0.80;;
2400;SDS011;1211;43.200;27.914;2022-08-03T00:25:35;1.10;;;0.80;;
2400;SDS011;1211;43.200;27.914;2022-08-03T00:28:03;2.13;;;1.93;;
2400;SDS011;1211;43.200;27.914;2022-08-03T00:30:30;1.20;;;1.07;;
2400;SDS011;1211;43.200;27.914;2022-08-03T00:32:58;1.67;;;1.57;;
2400;SDS011;1211;43.200;27.914;2022-08-03T00:35:25;1.10;;;0.90;;
2400;SDS011;1211;43.200;27.914;2022-08-03T00:37:53;1.97;;;1.63;;
2400;SDS011;1211;43.200;27.914;2022-08-03T00:40:21;1.10;;;0.70;;
2400;SDS011;1211;43.200;27.914;2022-08-03T00:42:49;1.20;;;0.87;;
2400;SDS011;1211;43.200;27.914;2022-08-03T00:45:18;1.30;;;1.17;;
2400;SDS011;1211;43.200;27.914;2022-08-03T00:47:46;1.10;;;0.70;;
2400;SDS011;1211;43.200;27.914;2022-08-03T00:50:13;1.63;;;1.13;;
2400;SDS011;1211;43.200;27.914;2022-08-03T00:52:40;1.13;;;0.70;;
2400;SDS011;1211;43.200;27.914;2022-08-03T00:55:08;1.30;;;1.10;;
2400;SDS011;1211;43.200;27.914;2022-08-03T00:57:36;1.73;;;1.57;;
2400;SDS011;1211;43.200;27.914;2022-08-03T01:00:05;1.30;;;0.93;;
2400;SDS011;1211;43.200;27.914;2022-08-03T01:02:33;1.60;;;1.13;;
2400;SDS011;1211;43.200;27.914;2022-08-03T01:05:00;1.93;;;1.73;;
2400;SDS011;1211;43.200;27.914;2022-08-03T01:07:30;1.73;;;1.17;;
2400;SDS011;1211;43.200;27.914;2022-08-03T01:10:08;1.30;;;1.20;;
2400;SDS011;1211;43.200;27.914;2022-08-03T01:12:43;1.13;;;0.70;;
2400;SDS011;1211;43.200;27.914;2022-08-03T01:15:19;1.53;;;0.80;;
2400;SDS011;1211;43.200;27.914;2022-08-03T01:17:52;1.10;;;0.70;;
2400;SDS011;1211;43.200;27.914;2022-08-03T01:20:23;1.10;;;0.67;;
2400;SDS011;1211;43.200;27.914;2022-08-03T01:23:04;1.50;;;1.40;;
2400;SDS011;1211;43.200;27.914;2022-08-03T01:25:43;1.30;;;1.20;;
2400;SDS011;1211;43.200;27.914;2022-08-03T01:28:28;2.70;;;2.07;;
2400;SDS011;1211;43.200;27.914;2022-08-03T01:31:10;1.20;;;0.90;;
2400;SDS011;1211;43.200;27.914;2022-08-03T01:33:41;1.10;;;0.70;;
2400;SDS011;1211;43.200;27.914;2022-08-03T01:36:12;1.20;;;0.70;;
2400;SDS011;1211;43.200;27.914;2022-08-03T01:38:42;1.10;;;0.70;;
2400;SDS011;1211;43.200;27.914;2022-08-03T01:41:14;1.20;;;0.87;;
2400;SDS011;1211;43.200;27.914;2022-08-03T01:43:46;1.30;;;1.07;;
2400;SDS011;1211;43.200;27.914;2022-08-03T01:46:16;2.90;;;2.30;;
2400;SDS011;1211;43.200;27.914;2022-08-03T01:48:45;1.10;;;0.70;;
2400;SDS011;1211;43.200;27.914;2022-08-03T01:51:14;1.60;;;1.20;;
2400;SDS011;1211;43.200;27.914;2022-08-03T01:53:43;1.20;;;0.80;;
2400;SDS011;1211;43.200;27.914;2022-08-03T01:56:11;1.20;;;0.80;;
2400;SDS011;1211;43.200;27.914;2022-08-03T01:58:39;1.13;;;0.70;;
2400;SDS011;1211;43.200;27.914;2022-08-03T02:01:09;1.30;;;0.80;;
2400;SDS011;1211;43.200;27.914;2022-08-03T02:03:40;1.13;;;0.70;;
2400;SDS011;1211;43.200;27.914;2022-08-03T02:06:14;1.10;;;0.70;;
2400;SDS011;1211;43.200;27.914;2022-08-03T02:08:45;2.33;;;2.07;;
2400;SDS011;1211;43.200;27.914;2022-08-03T02:11:14;1.10;;;0.60;;
2400;SDS011;1211;43.200;27.914;2022-08-03T02:13:41;1.40;;;1.00;;
2400;SDS011;1211;43.200;27.914;2022-08-03T02:16:09;1.90;;;1.70;;
2400;SDS011;1211;43.200;27.914;2022-08-03T02:18:40;1.20;;;1.00;;
2400;SDS011;1211;43.200;27.914;2022-08-03T02:21:08;1.13;;;0.70;;
2400;SDS011;1211;43.200;27.914;2022-08-03T02:23:37;1.10;;;0.70;;
2400;SDS011;1211;43.200;27.914;2022-08-03T02:26:06;1.17;;;0.70;;
2400;SDS011;1211;43.200;27.914;2022-08-03T02:28:37;1.70;;;1.17;;
2400;SDS011;1211;43.200;27.914;2022-08-03T02:31:08;2.33;;;1.47;;
2400;SDS011;1211;43.200;27.914;2022-08-03T02:33:42;1.20;;;0.80;;
2400;SDS011;1211;43.200;27.914;2022-08-03T02:36:14;2.80;;;2.60;;
2400;SDS011;1211;43.200;27.914;2022-08-03T02:38:44;1.20;;;0.87;;
2400;SDS011;1211;43.200;27.914;2022-08-03T02:41:15;1.20;;;0.90;;
2400;SDS011;1211;43.200;27.914;2022-08-03T02:43:47;1.20;;;0.80;;
2400;SDS011;1211;43.200;27.914;2022-08-03T02:46:18;1.97;;;1.83;;
2400;SDS011;1211;43.200;27.914;2022-08-03T02:48:49;1.20;;;0.70;;
2400;SDS011;1211;43.200;27.914;2022-08-03T02:51:19;1.13;;;0.70;;
2400;SDS011;1211;43.200;27.914;2022-08-03T02:53:47;2.37;;;2.17;;
2400;SDS011;1211;43.200;27.914;2022-08-03T02:56:16;1.50;;;1.40;;
2400;SDS011;1211;43.200;27.914;2022-08-03T02:58:44;1.67;;;1.43;;
2400;SDS011;1211;43.200;27.914;2022-08-03T03:01:14;1.20;;;0.80;;
2400;SDS011;1211;43.200;27.914;2022-08-03T03:03:41;1.20;;;0.73;;
2400;SDS011;1211;43.200;27.914;2022-08-03T03:06:10;4.80;;;3.37;;
2400;SDS011;1211;43.200;27.914;2022-08-03T03:08:38;2.10;;;1.23;;
2400;SDS011;1211;43.200;27.914;2022-08-03T03:11:05;1.27;;;1.10;;
2400;SDS011;1211;43.200;27.914;2022-08-03T03:13:34;3.37;;;1.93;;
2400;SDS011;1211;43.200;27.914;2022-08-03T03:16:02;1.20;;;0.70;;
2400;SDS011;1211;43.200;27.914;2022-08-03T03:18:31;2.73;;;2.40;;
2400;SDS011;1211;43.200;27.914;2022-08-03T03:20:59;1.40;;;1.17;;
2400;SDS011;1211;43.200;27.914;2022-08-03T03:23:29;1.20;;;0.87;;
2400;SDS011;1211;43.200;27.914;2022-08-03T03:25:57;1.60;;;1.50;;
2400;SDS011;1211;43.200;27.914;2022-08-03T03:28:26;1.20;;;0.80;;
2400;SDS011;1211;43.200;27.914;2022-08-03T03:30:54;1.20;;;0.90;;
2400;SDS011;1211;43.200;27.914;2022-08-03T03:33:21;1.20;;;0.90;;
2400;SDS011;1211;43.200;27.914;2022-08-03T03:35:48;1.30;;;1.10;;
2400;SDS011;1211;43.200;27.914;2022-08-03T03:38:15;1.20;;;0.90;;
2400;SDS011;1211;43.200;27.914;2022-08-03T03:40:44;1.33;;;1.23;;
2400;SDS011;1211;43.200;27.914;2022-08-03T03:43:12;1.20;;;1.00;;
2400;SDS011;1211;43.200;27.914;2022-08-03T03:45:39;5.10;;;1.20;;
2400;SDS011;1211;43.200;27.914;2022-08-03T03:48:07;1.50;;;1.40;;
2400;SDS011;1211;43.200;27.914;2022-08-03T03:50:34;1.80;;;1.60;;
2400;SDS011;1211;43.200;27.914;2022-08-03T03:53:07;1.20;;;0.93;;
2400;SDS011;1211;43.200;27.914;2022-08-03T03:55:35;1.30;;;0.90;;
2400;SDS011;1211;43.200;27.914;2022-08-03T03:58:04;1.60;;;1.40;;
2400;SDS011;1211;43.200;27.914;2022-08-03T04:00:30;1.63;;;1.53;;
2400;SDS011;1211;43.200;27.914;2022-08-03T04:02:57;2.13;;;1.73;;
2400;SDS011;1211;43.200;27.914;2022-08-03T04:05:24;3.33;;;2.03;;
2400;SDS011;1211;43.200;27.914;2022-08-03T04:08:08;2.30;;;2.10;;
2400;SDS011;1211;43.200;27.914;2022-08-03T04:11:00;1.70;;;1.47;;
2400;SDS011;1211;43.200;27.914;2022-08-03T04:13:34;1.47;;;1.37;;
2400;SDS011;1211;43.200;27.914;2022-08-03T04:16:03;1.50;;;1.40;;
2400;SDS011;1211;43.200;27.914;2022-08-03T04:18:33;1.67;;;1.57;;
2400;SDS011;1211;43.200;27.914;2022-08-03T04:21:01;4.27;;;3.00;;
2400;SDS011;1211;43.200;27.914;2022-08-03T04:23:32;3.70;;;2.90;;
2400;SDS011;1211;43.200;27.914;2022-08-03T04:26:01;3.37;;;3.07;;
2400;SDS011;1211;43.200;27.914;2022-08-03T04:28:31;2.73;;;2.53;;
2400;SDS011;1211;43.200;27.914;2022-08-03T04:31:02;2.73;;;2.63;;
2400;SDS011;1211;43.200;27.914;2022-08-03T04:33:32;3.33;;;3.13;;
2400;SDS011;1211;43.200;27.914;2022-08-03T04:36:01;4.63;;;3.77;;
2400;SDS011;1211;43.200;27.914;2022-08-03T04:38:33;3.43;;;3.23;;
2400;SDS011;1211;43.200;27.914;2022-08-03T04:41:05;3.60;;;3.40;;
2400;SDS011;1211;43.200;27.914;2022-08-03T04:43:34;3.63;;;3.43;;
2400;SDS011;1211;43.200;27.914;2022-08-03T04:46:04;6.73;;;4.77;;
2400;SDS011;1211;43.200;27.914;2022-08-03T04:48:33;4.30;;;4.10;;
2400;SDS011;1211;43.200;27.914;2022-08-03T04:51:00;4.70;;;4.40;;
2400;SDS011;1211;43.200;27.914;2022-08-03T04:53:28;5.27;;;4.97;;
2400;SDS011;1211;43.200;27.914;2022-08-03T04:56:02;4.00;;;3.80;;
2400;SDS011;1211;43.200;27.914;2022-08-03T04:58:29;5.13;;;4.83;;
2400;SDS011;1211;43.200;27.914;2022-08-03T05:00:57;4.00;;;3.80;;
2400;SDS011;1211;43.200;27.914;2022-08-03T05:03:24;4.00;;;3.80;;
2400;SDS011;1211;43.200;27.914;2022-08-03T05:05:51;5.03;;;4.73;;
2400;SDS011;1211;43.200;27.914;2022-08-03T05:08:19;5.10;;;4.80;;
2400;SDS011;1211;43.200;27.914;2022-08-03T05:10:46;4.10;;;3.90;;
2400;SDS011;1211;43.200;27.914;2022-08-03T05:13:13;4.10;;;3.90;;
2400;SDS011;1211;43.200;27.914;2022-08-03T05:15:40;4.77;;;4.47;;
2400;SDS011;1211;43.200;27.914;2022-08-03T05:18:08;4.67;;;4.37;;
2400;SDS011;1211;43.200;27.914;2022-08-03T05:20:35;4.67;;;4.47;;
2400;SDS011;1211;43.200;27.914;2022-08-03T05:23:02;6.77;;;6.27;;
2400;SDS011;1211;43.200;27.914;2022-08-03T05:25:29;4.57;;;4.37;;
2400;SDS011;1211;43.200;27.914;2022-08-03T05:27:56;5.13;;;4.83;;
2400;SDS011;1211;43.200;27.914;2022-08-03T05:30:23;4.30;;;4.10;;
2400;SDS011;1211;43.200;27.914;2022-08-03T05:32:50;4.97;;;4.77;;
2400;SDS011;1211;43.200;27.914;2022-08-03T05:35:19;5.60;;;5.30;;
2400;SDS011;1211;43.200;27.914;2022-08-03T05:37:46;6.03;;;5.73;;
2400;SDS011;1211;43.200;27.914;2022-08-03T05:40:13;6.03;;;5.63;;
2400;SDS011;1211;43.200;27.914;2022-08-03T05:42:40;5.63;;;5.13;;
2400;SDS011;1211;43.200;27.914;2022-08-03T05:45:07;4.90;;;4.60;;
2400;SDS011;1211;43.200;27.914;2022-08-03T05:47:42;4.60;;;4.40;;
2400;SDS011;1211;43.200;27.914;2022-08-03T05:50:09;4.97;;;4.67;;
2400;SDS011;1211;43.200;27.914;2022-08-03T05:52:38;4.77;;;4.57;;
2400;SDS011;1211;43.200;27.914;2022-08-03T05:55:07;4.30;;;4.10;;
2400;SDS011;1211;43.200;27.914;2022-08-03T05:57:35;4.60;;;4.40;;
2400;SDS011;1211;43.200;27.914;2022-08-03T06:00:03;5.13;;;4.83;;
2400;SDS011;1211;43.200;27.914;2022-08-03T06:02:32;5.37;;;5.07;;
2400;SDS011;1211;43.200;27.914;2022-08-03T06:04:59;5.90;;;5.60;;
2400;SDS011;1211;43.200;27.914;2022-08-03T06:07:26;6.53;;;6.03;;
2400;SDS011;1211;43.200;27.914;2022-08-03T06:09:54;6.00;;;5.60;;
2400;SDS011;1211;43.200;27.914;2022-08-03T06:12:21;5.10;;;4.80;;
2400;SDS011;1211;43.200;27.914;2022-08-03T06:14:48;5.20;;;4.90;;
2400;SDS011;1211;43.200;27.914;2022-08-03T06:17:15;5.23;;;4.90;;
2400;SDS011;1211;43.200;27.914;2022-08-03T06:19:42;6.00;;;5.70;;
2400;SDS011;1211;43.200;27.914;2022-08-03T06:22:09;5.03;;;4.73;;
2400;SDS011;1211;43.200;27.914;2022-08-03T06:24:36;4.70;;;4.50;;
2400;SDS011;1211;43.200;27.914;2022-08-03T06:27:04;5.10;;;4.80;;
2400;SDS011;1211;43.200;27.914;2022-08-03T06:29:31;5.67;;;5.30;;
2400;SDS011;1211;43.200;27.914;2022-08-03T06:31:58;4.50;;;4.30;;
2400;SDS011;1211;43.200;27.914;2022-08-03T06:34:25;5.67;;;5.27;;
2400;SDS011;1211;43.200;27.914;2022-08-03T06:36:52;5.33;;;5.03;;
2400;SDS011;1211;43.200;27.914;2022-08-03T06:39:19;5.43;;;5.13;;
2400;SDS011;1211;43.200;27.914;2022-08-03T06:41:46;5.83;;;5.50;;
2400;SDS011;1211;43.200;27.914;2022-08-03T06:44:14;5.20;;;4.90;;
2400;SDS011;1211;43.200;27.914;2022-08-03T06:46:41;5.83;;;5.53;;
2400;SDS011;1211;43.200;27.914;2022-08-03T06:49:08;6.87;;;5.30;;
2400;SDS011;1211;43.200;27.914;2022-08-03T06:51:35;6.37;;;6.07;;
2400;SDS011;1211;43.200;27.914;2022-08-03T06:54:02;5.27;;;4.97;;
2400;SDS011;1211;43.200;27.914;2022-08-03T06:56:29;5.23;;;4.93;;
2400;SDS011;1211;43.200;27.914;2022-08-03T06:58:56;5.20;;;4.90;;
2400;SDS011;1211;43.200;27.914;2022-08-03T07:01:24;5.60;;;5.30;;
2400;SDS011;1211;43.200;27.914;2022-08-03T07:03:51;5.20;;;4.90;;
2400;SDS011;1211;43.200;27.914;2022-08-03T07:06:18;6.20;;;5.80;;
2400;SDS011;1211;43.200;27.914;2022-08-03T07:08:45;5.77;;;5.20;;
2400;SDS011;1211;43.200;27.914;2022-08-03T07:11:12;5.33;;;5.03;;
2400;SDS011;1211;43.200;27.914;2022-08-03T07:13:39;6.23;;;5.83;;
2400;SDS011;1211;43.200;27.914;2022-08-03T07:16:06;5.97;;;5.63;;
2400;SDS011;1211;43.200;27.914;2022-08-03T07:18:34;5.83;;;5.33;;
2400;SDS011;1211;43.200;27.914;2022-08-03T07:21:03;5.80;;;5.50;;
2400;SDS011;1211;43.200;27.914;2022-08-03T07:23:32;5.50;;;5.10;;
2400;SDS011;1211;43.200;27.914;2022-08-03T07:25:59;6.17;;;5.63;;
2400;SDS011;1211;43.200;27.914;2022-08-03T07:28:25;5.67;;;5.17;;
2400;SDS011;1211;43.200;27.914;2022-08-03T07:30:52;4.80;;;4.50;;
2400;SDS011;1211;43.200;27.914;2022-08-03T07:33:19;5.70;;;5.40;;
2400;SDS011;1211;43.200;27.914;2022-08-03T07:35:47;6.27;;;5.97;;
2400;SDS011;1211;43.200;27.914;2022-08-03T07:38:15;8.43;;;7.83;;
2400;SDS011;1211;43.200;27.914;2022-08-03T07:40:42;5.03;;;4.73;;
2400;SDS011;1211;43.200;27.914;2022-08-03T07:43:08;6.47;;;6.17;;
2400;SDS011;1211;43.200;27.914;2022-08-03T07:45:35;5.10;;;4.80;;
2400;SDS011;1211;43.200;27.914;2022-08-03T07:48:02;5.37;;;5.07;;
2400;SDS011;1211;43.200;27.914;2022-08-03T07:50:29;5.60;;;5.30;;
2400;SDS011;1211;43.200;27.914;2022-08-03T07:52:58;5.47;;;5.17;;
2400;SDS011;1211;43.200;27.914;2022-08-03T07:55:25;6.80;;;6.20;;
2400;SDS011;1211;43.200;27.914;2022-08-03T07:57:59;6.20;;;5.80;;
2400;SDS011;1211;43.200;27.914;2022-08-03T08:00:28;5.60;;;5.30;;
2400;SDS011;1211;43.200;27.914;2022-08-03T08:02:54;5.17;;;4.87;;
2400;SDS011;1211;43.200;27.914;2022-08-03T08:05:21;6.30;;;5.80;;
2400;SDS011;1211;43.200;27.914;2022-08-03T08:07:48;7.40;;;6.70;;
2400;SDS011;1211;43.200;27.914;2022-08-03T08:10:17;6.33;;;5.90;;
2400;SDS011;1211;43.200;27.914;2022-08-03T08:12:44;5.07;;;4.80;;
2400;SDS011;1211;43.200;27.914;2022-08-03T08:15:11;6.10;;;5.63;;
2400;SDS011;1211;43.200;27.914;2022-08-03T08:17:41;6.67;;;6.07;;
2400;SDS011;1211;43.200;27.914;2022-08-03T08:20:10;6.43;;;5.80;;
2400;SDS011;1211;43.200;27.914;2022-08-03T08:22:40;5.23;;;4.93;;
2400;SDS011;1211;43.200;27.914;2022-08-03T08:25:07;5.30;;;5.00;;
2400;SDS011;1211;43.200;27.914;2022-08-03T08:27:40;6.77;;;6.30;;
2400;SDS011;1211;43.200;27.914;2022-08-03T08:30:09;5.17;;;4.87;;
2400;SDS011;1211;43.200;27.914;2022-08-03T08:32:37;5.77;;;5.27;;
2400;SDS011;1211;43.200;27.914;2022-08-03T08:35:04;6.43;;;6.03;;
2400;SDS011;1211;43.200;27.914;2022-08-03T08:37:32;5.30;;;5.00;;
2400;SDS011;1211;43.200;27.914;2022-08-03T08:40:00;5.80;;;5.50;;
2400;SDS011;1211;43.200;27.914;2022-08-03T08:42:27;7.50;;;7.00;;
2400;SDS011;1211;43.200;27.914;2022-08-03T08:44:55;5.30;;;5.00;;
2400;SDS011;1211;43.200;27.914;2022-08-03T08:47:23;6.83;;;6.13;;
2400;SDS011;1211;43.200;27.914;2022-08-03T08:49:51;4.50;;;4.30;;
2400;SDS011;1211;43.200;27.914;2022-08-03T08:52:20;4.50;;;4.30;;
2400;SDS011;1211;43.200;27.914;2022-08-03T08:54:51;4.80;;;4.50;;
2400;SDS011;1211;43.200;27.914;2022-08-03T08:57:21;6.00;;;5.50;;
2400;SDS011;1211;43.200;27.914;2022-08-03T08:59:51;5.47;;;5.07;;
2400;SDS011;1211;43.200;27.914;2022-08-03T09:02:22;6.23;;;5.73;;
2400;SDS011;1211;43.200;27.914;2022-08-03T09:04:49;6.10;;;5.60;;
2400;SDS011;1211;43.200;27.914;2022-08-03T09:07:17;5.90;;;5.40;;
2400;SDS011;1211;43.200;27.914;2022-08-03T09:09:44;5.40;;;5.10;;
2400;SDS011;1211;43.200;27.914;2022-08-03T09:12:11;6.47;;;6.00;;
2400;SDS011;1211;43.200;27.914;2022-08-03T09:14:37;6.83;;;6.33;;
2400;SDS011;1211;43.200;27.914;2022-08-03T09:17:04;4.70;;;4.50;;
2400;SDS011;1211;43.200;27.914;2022-08-03T09:19:34;5.20;;;4.90;;
2400;SDS011;1211;43.200;27.914;2022-08-03T09:22:08;4.90;;;4.60;;
2400;SDS011;1211;43.200;27.914;2022-08-03T09:24:36;5.23;;;4.93;;
2400;SDS011;1211;43.200;27.914;2022-08-03T09:27:05;6.43;;;5.93;;
2400;SDS011;1211;43.200;27.914;2022-08-03T09:29:37;7.23;;;6.83;;
2400;SDS011;1211;43.200;27.914;2022-08-03T09:32:04;6.83;;;6.23;;
2400;SDS011;1211;43.200;27.914;2022-08-03T09:34:31;5.67;;;5.27;;
2400;SDS011;1211;43.200;27.914;2022-08-03T09:37:00;6.20;;;5.60;;
2400;SDS011;1211;43.200;27.914;2022-08-03T09:39:27;5.50;;;5.20;;
2400;SDS011;1211;43.200;27.914;2022-08-03T09:42:06;5.10;;;4.80;;
2400;SDS011;1211;43.200;27.914;2022-08-03T09:44:34;5.57;;;5.27;;
2400;SDS011;1211;43.200;27.914;2022-08-03T09:47:02;5.70;;;5.40;;
2400;SDS011;1211;43.200;27.914;2022-08-03T09:49:30;6.53;;;6.13;;
2400;SDS011;1211;43.200;27.914;2022-08-03T09:52:01;6.23;;;5.83;;
2400;SDS011;1211;43.200;27.914;2022-08-03T09:54:40;6.07;;;5.67;;
2400;SDS011;1211;43.200;27.914;2022-08-03T09:57:11;5.40;;;5.00;;
2400;SDS011;1211;43.200;27.914;2022-08-03T09:59:47;7.00;;;6.50;;
2400;SDS011;1211;43.200;27.914;2022-08-03T10:02:20;6.20;;;5.70;;
2400;SDS011;1211;43.200;27.914;2022-08-03T10:04:49;5.93;;;5.50;;
2400;SDS011;1211;43.200;27.914;2022-08-03T10:07:18;6.40;;;6.00;;
2400;SDS011;1211;43.200;27.914;2022-08-03T10:09:53;6.17;;;5.77;;
2400;SDS011;1211;43.200;27.914;2022-08-03T10:12:21;4.80;;;4.50;;
2400;SDS011;1211;43.200;27.914;2022-08-03T10:14:49;6.17;;;5.77;;
2400;SDS011;1211;43.200;27.914;2022-08-03T10:17:17;6.10;;;5.70;;
2400;SDS011;1211;43.200;27.914;2022-08-03T10:19:45;6.53;;;6.03;;
2400;SDS011;1211;43.200;27.914;2022-08-03T10:22:13;5.77;;;5.37;;
2400;SDS011;1211;43.200;27.914;2022-08-03T10:24:47;6.10;;;5.60;;
2400;SDS011;1211;43.200;27.914;2022-08-03T10:27:21;7.43;;;6.93;;
2400;SDS011;1211;43.200;27.914;2022-08-03T10:29:50;6.20;;;5.80;;
2400;SDS011;1211;43.200;27.914;2022-08-03T10:32:20;6.67;;;6.27;;
2400;SDS011;1211;43.200;27.914;2022-08-03T10:34:51;7.13;;;6.20;;
2400;SDS011;1211;43.200;27.914;2022-08-03T10:37:25;6.37;;;5.97;;
2400;SDS011;1211;43.200;27.914;2022-08-03T10:39:59;6.20;;;5.80;;
2400;SDS011;1211;43.200;27.914;2022-08-03T10:42:27;6.60;;;6.20;;
2400;SDS011;1211;43.200;27.914;2022-08-03T10:44:59;5.47;;;5.07;;
2400;SDS011;1211;43.200;27.914;2022-08-03T10:47:30;6.17;;;5.77;;
2400;SDS011;1211;43.200;27.914;2022-08-03T10:49:58;6.97;;;6.27;;
2400;SDS011;1211;43.200;27.914;2022-08-03T10:52:26;6.03;;;5.60;;
2400;SDS011;1211;43.200;27.914;2022-08-03T10:54:52;6.80;;;5.90;;
2400;SDS011;1211;43.200;27.914;2022-08-03T10:57:46;5.90;;;5.60;;
2400;SDS011;1211;43.200;27.914;2022-08-03T11:00:14;7.13;;;6.63;;
2400;SDS011;1211;43.200;27.914;2022-08-03T11:03:02;6.03;;;5.53;;
2400;SDS011;1211;43.200;27.914;2022-08-03T11:05:32;5.80;;;5.40;;
2400;SDS011;1211;43.200;27.914;2022-08-03T11:08:19;6.00;;;5.60;;
2400;SDS011;1211;43.200;27.914;2022-08-03T11:10:54;5.77;;;5.37;;
2400;SDS011;1211;43.200;27.914;2022-08-03T11:13:24;6.43;;;5.83;;
2400;SDS011;1211;43.200;27.914;2022-08-03T11:15:56;5.80;;;5.40;;
2400;SDS011;1211;43.200;27.914;2022-08-03T11:18:25;5.63;;;5.13;;
2400;SDS011;1211;43.200;27.914;2022-08-03T11:20:53;5.80;;;5.40;;
2400;SDS011;1211;43.200;27.914;2022-08-03T11:26:07;5.67;;;5.07;;
2400;SDS011;1211;43.200;27.914;2022-08-03T11:28:36;5.53;;;5.13;;
2400;SDS011;1211;43.200;27.914;2022-08-03T11:34:11;5.83;;;5.43;;
2400;SDS011;1211;43.200;27.914;2022-08-03T11:39:43;4.53;;;4.23;;
2400;SDS011;1211;43.200;27.914;2022-08-03T11:45:05;4.90;;;4.60;;
2400;SDS011;1211;43.200;27.914;2022-08-03T11:47:35;9.23;;;4.93;;
2400;SDS011;1211;43.200;27.914;2022-08-03T11:50:04;8.40;;;4.10;;
2400;SDS011;1211;43.200;27.914;2022-08-03T11:52:38;5.80;;;4.43;;
2400;SDS011;1211;43.200;27.914;2022-08-03T11:55:10;4.03;;;3.73;;
2400;SDS011;1211;43.200;27.914;2022-08-03T11:57:39;4.80;;;4.47;;
2400;SDS011;1211;43.200;27.914;2022-08-03T12:03:00;6.63;;;5.00;;
2400;SDS011;1211;43.200;27.914;2022-08-03T12:05:36;5.27;;;4.87;;
2400;SDS011;1211;43.200;27.914;2022-08-03T12:08:05;4.80;;;4.40;;
2400;SDS011;1211;43.200;27.914;2022-08-03T12:10:33;5.40;;;4.20;;
2400;SDS011;1211;43.200;27.914;2022-08-03T12:13:01;3.90;;;3.67;;
2400;SDS011;1211;43.200;27.914;2022-08-03T12:15:34;5.33;;;4.93;;
2400;SDS011;1211;43.200;27.914;2022-08-03T12:18:11;4.97;;;4.57;;
2400;SDS011;1211;43.200;27.914;2022-08-03T12:20:39;5.17;;;4.67;;
2400;SDS011;1211;43.200;27.914;2022-08-03T12:23:06;5.50;;;5.10;;
2400;SDS011;1211;43.200;27.914;2022-08-03T12:25:34;4.60;;;4.20;;
2400;SDS011;1211;43.200;27.914;2022-08-03T12:28:05;5.60;;;5.20;;
2400;SDS011;1211;43.200;27.914;2022-08-03T12:30:38;5.23;;;4.83;;
2400;SDS011;1211;43.200;27.914;2022-08-03T12:33:12;5.90;;;4.90;;
2400;SDS011;1211;43.200;27.914;2022-08-03T12:35:40;8.77;;;4.87;;
2400;SDS011;1211;43.200;27.914;2022-08-03T12:38:07;4.87;;;4.57;;
2400;SDS011;1211;43.200;27.914;2022-08-03T12:40:36;3.80;;;3.60;;
2400;SDS011;1211;43.200;27.914;2022-08-03T12:43:09;4.97;;;4.37;;
2400;SDS011;1211;43.200;27.914;2022-08-03T12:45:38;4.23;;;3.93;;
2400;SDS011;1211;43.200;27.914;2022-08-03T12:48:08;5.73;;;5.30;;
2400;SDS011;1211;43.200;27.914;2022-08-03T12:50:36;5.37;;;4.97;;
2400;SDS011;1211;43.200;27.914;2022-08-03T12:53:04;5.17;;;4.87;;
2400;SDS011;1211;43.200;27.914;2022-08-03T12:55:33;4.90;;;4.60;;
2400;SDS011;1211;43.200;27.914;2022-08-03T12:58:00;4.43;;;4.03;;
2400;SDS011;1211;43.200;27.914;2022-08-03T13:00:27;5.20;;;4.80;;
2400;SDS011;1211;43.200;27.914;2022-08-03T13:02:59;5.20;;;4.83;;
2400;SDS011;1211;43.200;27.914;2022-08-03T13:05:27;5.07;;;4.67;;
2400;SDS011;1211;43.200;27.914;2022-08-03T13:07:55;4.80;;;4.50;;
2400;SDS011;1211;43.200;27.914;2022-08-03T13:10:29;5.00;;;4.70;;
2400;SDS011;1211;43.200;27.914;2022-08-03T13:12:57;5.27;;;4.90;;
2400;SDS011;1211;43.200;27.914;2022-08-03T13:15:27;4.63;;;4.33;;
2400;SDS011;1211;43.200;27.914;2022-08-03T13:17:55;4.77;;;4.37;;
2400;SDS011;1211;43.200;27.914;2022-08-03T13:20:23;5.50;;;5.10;;
2400;SDS011;1211;43.200;27.914;2022-08-03T13:22:50;4.87;;;3.97;;
2400;SDS011;1211;43.200;27.914;2022-08-03T13:25:17;4.60;;;4.30;;
2400;SDS011;1211;43.200;27.914;2022-08-03T13:27:44;4.93;;;4.53;;
2400;SDS011;1211;43.200;27.914;2022-08-03T13:30:12;4.87;;;4.57;;
2400;SDS011;1211;43.200;27.914;2022-08-03T13:32:39;5.10;;;4.60;;
2400;SDS011;1211;43.200;27.914;2022-08-03T13:35:07;5.43;;;5.03;;
2400;SDS011;1211;43.200;27.914;2022-08-03T13:37:36;4.60;;;4.30;;
2400;SDS011;1211;43.200;27.914;2022-08-03T13:40:04;4.17;;;3.90;;
2400;SDS011;1211;43.200;27.914;2022-08-03T13:42:32;4.47;;;4.17;;
2400;SDS011;1211;43.200;27.914;2022-08-03T13:45:00;9.50;;;5.43;;
2400;SDS011;1211;43.200;27.914;2022-08-03T13:47:30;4.60;;;4.30;;
2400;SDS011;1211;43.200;27.914;2022-08-03T13:49:57;3.87;;;3.67;;
2400;SDS011;1211;43.200;27.914;2022-08-03T13:52:24;4.57;;;4.27;;
2400;SDS011;1211;43.200;27.914;2022-08-03T13:54:53;4.83;;;4.43;;
2400;SDS011;1211;43.200;27.914;2022-08-03T13:57:19;4.83;;;4.43;;
2400;SDS011;1211;43.200;27.914;2022-08-03T13:59:46;4.33;;;4.03;;
2400;SDS011;1211;43.200;27.914;2022-08-03T14:02:13;5.30;;;4.90;;
2400;SDS011;1211;43.200;27.914;2022-08-03T14:04:40;4.00;;;3.77;;
2400;SDS011;1211;43.200;27.914;2022-08-03T14:07:07;4.10;;;3.80;;
2400;SDS011;1211;43.200;27.914;2022-08-03T14:09:34;4.67;;;4.37;;
2400;SDS011;1211;43.200;27.914;2022-08-03T14:12:02;4.10;;;3.80;;
2400;SDS011;1211;43.200;27.914;2022-08-03T14:14:30;3.93;;;3.63;;
2400;SDS011;1211;43.200;27.914;2022-08-03T14:16:57;5.40;;;3.70;;
2400;SDS011;1211;43.200;27.914;2022-08-03T14:19:23;4.30;;;3.97;;
2400;SDS011;1211;43.200;27.914;2022-08-03T14:21:50;4.03;;;3.77;;
2400;SDS011;1211;43.200;27.914;2022-08-03T14:24:17;4.70;;;4.30;;
2400;SDS011;1211;43.200;27.914;2022-08-03T14:26:44;4.20;;;3.90;;
2400;SDS011;1211;43.200;27.914;2022-08-03T14:29:12;3.33;;;3.13;;
2400;SDS011;1211;43.200;27.914;2022-08-03T14:31:39;5.30;;;4.67;;
2400;SDS011;1211;43.200;27.914;2022-08-03T14:34:06;3.60;;;3.40;;
2400;SDS011;1211;43.200;27.914;2022-08-03T14:36:33;5.30;;;4.77;;
2400;SDS011;1211;43.200;27.914;2022-08-03T14:38:59;4.03;;;3.73;;
2400;SDS011;1211;43.200;27.914;2022-08-03T14:41:26;3.13;;;2.93;;
2400;SDS011;1211;43.200;27.914;2022-08-03T14:43:53;4.90;;;4.60;;
2400;SDS011;1211;43.200;27.914;2022-08-03T14:46:22;4.37;;;4.10;;
2400;SDS011;1211;43.200;27.914;2022-08-03T14:48:49;4.73;;;4.33;;
2400;SDS011;1211;43.200;27.914;2022-08-03T14:51:16;4.70;;;4.33;;
2400;SDS011;1211;43.200;27.914;2022-08-03T14:53:43;3.40;;;3.20;;
2400;SDS011;1211;43.200;27.914;2022-08-03T14:56:10;4.80;;;4.40;;
2400;SDS011;1211;43.200;27.914;2022-08-03T14:58:37;5.27;;;4.80;;
2400;SDS011;1211;43.200;27.914;2022-08-03T15:01:04;3.90;;;3.60;;
2400;SDS011;1211;43.200;27.914;2022-08-03T15:03:35;5.50;;;5.10;;
2400;SDS011;1211;43.200;27.914;2022-08-03T15:06:02;6.33;;;4.80;;
2400;SDS011;1211;43.200;27.914;2022-08-03T15:08:29;4.50;;;4.20;;
2400;SDS011;1211;43.200;27.914;2022-08-03T15:10:56;4.40;;;4.10;;
2400;SDS011;1211;43.200;27.914;2022-08-03T15:13:22;4.37;;;4.07;;
2400;SDS011;1211;43.200;27.914;2022-08-03T15:15:51;4.40;;;4.10;;
2400;SDS011;1211;43.200;27.914;2022-08-03T15:18:17;3.73;;;3.43;;
2400;SDS011;1211;43.200;27.914;2022-08-03T15:20:46;4.33;;;4.03;;
2400;SDS011;1211;43.200;27.914;2022-08-03T15:23:15;4.33;;;4.03;;
2400;SDS011;1211;43.200;27.914;2022-08-03T15:25:42;4.27;;;3.97;;